ADDS METAR Data INFO
IDs: Format: Raw Decoded Include TAF

Data at: 0032 UTC 23 Oct 2017

KIXA 230025Z AUTO 00000KT 10SM CLR 15/15 A3030 RMK AO2
KIXA 230005Z AUTO 00000KT 10SM CLR 16/15 A3030 RMK AO2
KIXA 222345Z AUTO 00000KT 10SM CLR 16/15 A3029 RMK AO2
KIXA 222325Z AUTO 00000KT 10SM CLR 17/15 A3029 RMK AO2
KIXA 222305Z AUTO 00000KT 10SM CLR 18/15 A3028 RMK AO2
KIXA 222245Z AUTO 00000KT 10SM CLR 18/16 A3028 RMK AO2
KIXA 222225Z AUTO 00000KT 10SM CLR 20/16 A3027 RMK AO2
KIXA 222205Z AUTO 00000KT 10SM CLR 21/15 A3027 RMK AO2
KIXA 222145Z AUTO 00000KT 10SM CLR 23/16 A3027 RMK AO2
KIXA 222125Z AUTO 00000KT 10SM CLR 24/15 A3028 RMK AO2
KIXA 222105Z AUTO 00000KT 10SM CLR 23/14 A3028 RMK AO2
KIXA 222045Z AUTO 10003KT 10SM CLR 25/13 A3028 RMK AO2
KIXA 222025Z AUTO 10004KT 10SM CLR 25/13 A3028 RMK AO2
KIXA 222005Z AUTO 00000KT 10SM CLR 25/12 A3029 RMK AO2
KIXA 221945Z AUTO 19003KT 10SM CLR 25/13 A3029 RMK AO2
KIXA 221925Z AUTO 10004KT 10SM CLR 25/13 A3030 RMK AO2
KIXA 221905Z AUTO 00000KT 10SM CLR 25/13 A3030 RMK AO2
KIXA 221845Z AUTO 15004KT 10SM CLR 25/13 A3030 RMK AO2
KIXA 221825Z AUTO 05003KT 10SM CLR 24/13 A3031 RMK AO2
KIXA 221805Z AUTO 18004KT 10SM CLR 25/13 A3032 RMK AO2
KIXA 221745Z AUTO 08004KT 10SM CLR 25/13 A3033 RMK AO2
KIXA 221725Z AUTO 00000KT 10SM CLR 24/13 A3034 RMK AO2
KIXA 221705Z AUTO 11004KT 10SM CLR 24/13 A3035 RMK AO2
KIXA 221645Z AUTO 10004KT 10SM CLR 24/13 A3036 RMK AO2
KIXA 221625Z AUTO 10003KT 10SM CLR 23/13 A3037 RMK AO2
KIXA 221605Z AUTO 00000KT 10SM CLR 22/13 A3037 RMK AO2
KIXA 221545Z AUTO 00000KT 10SM CLR 22/13 A3037 RMK AO2
KIXA 221525Z AUTO 00000KT 10SM CLR 21/14 A3038 RMK AO2
KIXA 221505Z AUTO 00000KT 10SM CLR 20/14 A3038 RMK AO2
KIXA 221445Z AUTO 12003KT 10SM CLR 19/15 A3038 RMK AO2
KIXA 221425Z AUTO 00000KT 10SM CLR 17/15 A3038 RMK AO2
KIXA 221405Z AUTO 00000KT 10SM CLR 16/15 A3038 RMK AO2
KIXA 221345Z AUTO 00000KT 10SM CLR 15/15 A3038 RMK AO2
KIXA 221325Z AUTO 00000KT 10SM CLR 14/14 A3039 RMK AO2
KIXA 221245Z AUTO 00000KT 7SM CLR 11/11 A3038 RMK AO2
KIXA 221225Z AUTO 00000KT 3SM BR CLR 10/10 A3038 RMK AO2
KIXA 221205Z AUTO 00000KT 7SM CLR 09/09 A3037 RMK AO2
KIXA 221145Z AUTO 00000KT 7SM CLR 08/08 A3037 RMK AO2
KIXA 221125Z AUTO 00000KT 4SM BR CLR 09/09 A3036 RMK AO2
KIXA 221105Z AUTO 00000KT 7SM CLR 10/10 A3036 RMK AO2
KIXA 221045Z AUTO 00000KT 7SM CLR 10/10 A3035 RMK AO2
KIXA 221025Z AUTO 00000KT 10SM CLR 09/09 A3035 RMK AO2
KIXA 221005Z AUTO 00000KT 5SM BR CLR 10/10 A3035 RMK AO2
KIXA 220945Z AUTO 00000KT 2 1/2SM BR CLR 10/10 A3034 RMK AO2
KIXA 220925Z AUTO 00000KT 1 3/4SM BR VV007 10/10 A3034 RMK AO2
KIXA 220905Z AUTO 00000KT 10SM CLR 10/10 A3034 RMK AO2
KIXA 220845Z AUTO 00000KT 7SM CLR 11/11 A3034 RMK AO2
KIXA 220825Z AUTO 00000KT 1 1/2SM BR VV007 10/10 A3033 RMK AO2
KIXA 220805Z AUTO 00000KT 4SM BR CLR 10/10 A3033 RMK AO2
KIXA 220745Z AUTO 00000KT 7SM CLR 11/11 A3033 RMK AO2
KIXA 220725Z AUTO 00000KT 5SM BR CLR 11/11 A3033 RMK AO2
KIXA 220705Z AUTO 00000KT 2SM BR CLR 11/11 A3033 RMK AO2
KIXA 220645Z AUTO 00000KT 2 1/2SM BR CLR 11/11 A3033 RMK AO2 VIS 1/2V5
KIXA 220625Z AUTO 00000KT 2 1/2SM BR CLR 11/11 A3034 RMK AO2 VIS 1 1/4V5
KIXA 220605Z AUTO 00000KT 1 3/4SM BR VV007 12/12 A3034 RMK AO2
KIXA 220545Z AUTO 00000KT 1 1/2SM BR VV007 12/12 A3035 RMK AO2 VIS 1/2V5
KIXA 220525Z AUTO 00000KT 7SM CLR 13/13 A3035 RMK AO2
KIXA 220505Z AUTO 00000KT 10SM CLR 13/13 A3034 RMK AO2
KIXA 220445Z AUTO 00000KT 7SM CLR 13/13 A3034 RMK AO2
KIXA 220425Z AUTO 00000KT 10SM CLR 13/13 A3035 RMK AO2
KIXA 220405Z AUTO 00000KT 10SM CLR 15/13 A3035 RMK AO2
KIXA 220345Z AUTO 00000KT 10SM CLR 15/14 A3035 RMK AO2
KIXA 220325Z AUTO 00000KT 10SM CLR 15/13 A3035 RMK AO2
KIXA 220305Z AUTO 00000KT 10SM CLR 15/14 A3035 RMK AO2
KIXA 220245Z AUTO 00000KT 10SM CLR 16/14 A3035 RMK AO2
KIXA 220225Z AUTO 10003KT 10SM CLR 16/14 A3035 RMK AO2
KIXA 220205Z AUTO 00000KT 10SM CLR 16/14 A3035 RMK AO2
KIXA 220145Z AUTO 00000KT 10SM CLR 15/15 A3034 RMK AO2
KIXA 220125Z AUTO 00000KT 10SM CLR 15/14 A3034 RMK AO2
KIXA 220105Z AUTO 00000KT 10SM CLR 15/15 A3034 RMK AO2
KIXA 220045Z AUTO 00000KT 10SM CLR 15/15 A3034 RMK AO2
KIXA 220025Z AUTO 00000KT 10SM CLR 15/15 A3034 RMK AO2
KIXA 220005Z AUTO 00000KT 10SM CLR 16/16 A3034 RMK AO2
KIXA 212345Z AUTO 00000KT 10SM CLR 16/16 A3033 RMK AO2
KIXA 212325Z AUTO 00000KT 10SM CLR 16/15 A3033 RMK AO2
KIXA 212305Z AUTO 00000KT 10SM CLR 17/16 A3033 RMK AO2
KIXA 212245Z AUTO 00000KT 10SM CLR 17/16 A3032 RMK AO2
KIXA 212225Z AUTO 00000KT 10SM CLR 18/15 A3032 RMK AO2
KIXA 212205Z AUTO 00000KT 10SM CLR 19/17 A3031 RMK AO2
KIXA 212145Z AUTO 00000KT 10SM CLR 21/17 A3031 RMK AO2
KIXA 212125Z AUTO 00000KT 10SM CLR 22/17 A3031 RMK AO2
KIXA 212105Z AUTO 00000KT 10SM CLR 22/16 A3031 RMK AO2
KIXA 212045Z AUTO 00000KT 10SM CLR 25/12 A3030 RMK AO2
KIXA 212025Z AUTO 00000KT 10SM CLR 25/12 A3030 RMK AO2
KIXA 212005Z AUTO 00000KT 10SM CLR 25/12 A3030 RMK AO2
KIXA 211945Z AUTO 00000KT 10SM CLR 25/12 A3030 RMK AO2
KIXA 211925Z AUTO 00000KT 10SM CLR 25/13 A3030 RMK AO2
KIXA 211905Z AUTO 00000KT 10SM CLR 25/13 A3030 RMK AO2
KIXA 211845Z AUTO 21003KT 10SM CLR 25/12 A3030 RMK AO2
KIXA 211825Z AUTO 34003KT 10SM CLR 25/13 A3030 RMK AO2
KIXA 211805Z AUTO 02004KT 10SM CLR 25/13 A3031 RMK AO2
KIXA 211745Z AUTO 00000KT 10SM CLR 24/12 A3032 RMK AO2
KIXA 211725Z AUTO 00000KT 10SM CLR 24/12 A3032 RMK AO2
KIXA 211705Z AUTO 00000KT 10SM CLR 24/12 A3033 RMK AO2
KIXA 211645Z AUTO 00000KT 10SM CLR 23/12 A3033 RMK AO2
KIXA 211625Z AUTO 07003KT 10SM CLR 23/13 A3034 RMK AO2
KIXA 211605Z AUTO 14003KT 10SM CLR 23/13 A3034 RMK AO2
KIXA 211545Z AUTO 00000KT 10SM CLR 22/13 A3035 RMK AO2
KIXA 211525Z AUTO 00000KT 10SM CLR 22/14 A3035 RMK AO2
KIXA 211505Z AUTO 00000KT 10SM CLR 21/15 A3035 RMK AO2
KIXA 211445Z AUTO 00000KT 10SM CLR 20/15 A3035 RMK AO2
KIXA 211425Z AUTO 00000KT 10SM CLR 19/15 A3035 RMK AO2
KIXA 211405Z AUTO 00000KT 10SM CLR 17/15 A3035 RMK AO2
KIXA 211345Z AUTO 00000KT 10SM CLR 16/14 A3035 RMK AO2
KIXA 211325Z AUTO 00000KT 7SM CLR 15/13 A3035 RMK AO2
KIXA 211305Z AUTO 00000KT 5SM BR CLR 13/13 A3034 RMK AO2
KIXA 211245Z AUTO 00000KT 7SM CLR 12/12 A3034 RMK AO2